sensor_id;sensor_type;location;lat;lon;timestamp;pressure;altitude;pressure_sealevel;temperature;humidity
27144;BME280;14672;50.250;8.312;2023-06-14T00:02:16;98550.28;;;19.44;47.55
27144;BME280;14672;50.250;8.312;2023-06-14T00:04:42;98551.84;;;19.34;47.62
27144;BME280;14672;50.250;8.312;2023-06-14T00:07:09;98554.50;;;19.21;48.40
27144;BME280;14672;50.250;8.312;2023-06-14T00:09:34;98542.44;;;19.34;47.39
27144;BME280;14672;50.250;8.312;2023-06-14T00:12:01;98552.94;;;19.14;48.43
27144;BME280;14672;50.250;8.312;2023-06-14T00:14:27;98549.25;;;19.25;47.96
27144;BME280;14672;50.250;8.312;2023-06-14T00:16:52;98554.75;;;19.01;48.68
27144;BME280;14672;50.250;8.312;2023-06-14T00:19:18;98547.16;;;19.09;48.36
27144;BME280;14672;50.250;8.312;2023-06-14T00:21:45;98551.13;;;18.95;48.84
27144;BME280;14672;50.250;8.312;2023-06-14T00:24:11;98552.69;;;19.01;48.14
27144;BME280;14672;50.250;8.312;2023-06-14T00:26:37;98555.03;;;18.69;48.77
27144;BME280;14672;50.250;8.312;2023-06-14T00:29:03;98548.50;;;18.97;48.18
27144;BME280;14672;50.250;8.312;2023-06-14T00:31:29;98555.31;;;18.94;48.02
27144;BME280;14672;50.250;8.312;2023-06-14T00:33:54;98540.34;;;19.12;47.55
27144;BME280;14672;50.250;8.312;2023-06-14T00:36:20;98551.63;;;18.99;48.03
27144;BME280;14672;50.250;8.312;2023-06-14T00:38:46;98545.09;;;18.76;48.83
27144;BME280;14672;50.250;8.312;2023-06-14T00:41:12;98545.09;;;18.98;48.29
27144;BME280;14672;50.250;8.312;2023-06-14T00:43:37;98549.00;;;18.84;47.99
27144;BME280;14672;50.250;8.312;2023-06-14T00:46:03;98551.63;;;18.82;48.63
27144;BME280;14672;50.250;8.312;2023-06-14T00:48:33;98547.16;;;18.75;48.64
27144;BME280;14672;50.250;8.312;2023-06-14T00:51:00;98549.00;;;18.84;48.60
27144;BME280;14672;50.250;8.312;2023-06-14T00:53:30;98557.41;;;18.82;48.60
27144;BME280;14672;50.250;8.312;2023-06-14T00:55:59;98551.13;;;18.67;48.77
27144;BME280;14672;50.250;8.312;2023-06-14T00:58:26;98559.19;;;18.57;48.84
27144;BME280;14672;50.250;8.312;2023-06-14T01:00:53;98557.13;;;18.74;48.61
27144;BME280;14672;50.250;8.312;2023-06-14T01:03:19;98556.06;;;18.83;48.45
27144;BME280;14672;50.250;8.312;2023-06-14T01:05:53;98560.25;;;18.65;48.71
27144;BME280;14672;50.250;8.312;2023-06-14T01:11:52;98553.19;;;18.66;48.69
27144;BME280;14672;50.250;8.312;2023-06-14T01:14:21;98557.38;;;18.65;48.84
27144;BME280;14672;50.250;8.312;2023-06-14T01:16:50;98565.75;;;18.74;48.46
27144;BME280;14672;50.250;8.312;2023-06-14T01:19:19;98558.16;;;18.71;48.43
27144;BME280;14672;50.250;8.312;2023-06-14T01:21:48;98563.91;;;18.60;49.00
27144;BME280;14672;50.250;8.312;2023-06-14T01:24:16;98566.28;;;18.62;48.57
27144;BME280;14672;50.250;8.312;2023-06-14T01:26:45;98558.44;;;18.62;48.54
27144;BME280;14672;50.250;8.312;2023-06-14T01:29:13;98562.84;;;18.63;48.57
27144;BME280;14672;50.250;8.312;2023-06-14T01:31:43;98558.91;;;18.55;48.74
27144;BME280;14672;50.250;8.312;2023-06-14T01:34:09;98561.31;;;18.62;48.35
27144;BME280;14672;50.250;8.312;2023-06-14T01:36:37;98566.00;;;18.54;48.79
27144;BME280;14672;50.250;8.312;2023-06-14T01:39:06;98561.03;;;18.60;49.08
27144;BME280;14672;50.250;8.312;2023-06-14T01:41:34;98559.97;;;18.63;48.80
27144;BME280;14672;50.250;8.312;2023-06-14T01:44:01;98562.28;;;18.48;49.00
27144;BME280;14672;50.250;8.312;2023-06-14T01:46:27;98572.78;;;18.57;48.77
27144;BME280;14672;50.250;8.312;2023-06-14T01:48:53;98576.66;;;18.37;49.35
27144;BME280;14672;50.250;8.312;2023-06-14T01:51:19;98565.44;;;18.50;48.80
27144;BME280;14672;50.250;8.312;2023-06-14T01:53:45;98570.72;;;18.57;48.62
27144;BME280;14672;50.250;8.312;2023-06-14T01:56:10;98573.31;;;18.61;48.23
27144;BME280;14672;50.250;8.312;2023-06-14T01:58:36;98573.53;;;18.41;49.13
27144;BME280;14672;50.250;8.312;2023-06-14T02:01:02;98576.16;;;18.50;48.99
27144;BME280;14672;50.250;8.312;2023-06-14T02:03:28;98584.00;;;18.49;49.03
27144;BME280;14672;50.250;8.312;2023-06-14T02:05:53;98578.47;;;18.40;49.69
27144;BME280;14672;50.250;8.312;2023-06-14T02:08:27;98579.81;;;18.50;49.22
27144;BME280;14672;50.250;8.312;2023-06-14T02:10:52;98574.56;;;18.38;49.34
27144;BME280;14672;50.250;8.312;2023-06-14T02:13:18;98568.53;;;18.30;49.32
27144;BME280;14672;50.250;8.312;2023-06-14T02:15:44;98571.38;;;18.24;49.54
27144;BME280;14672;50.250;8.312;2023-06-14T02:18:12;98578.94;;;18.11;49.92
27144;BME280;14672;50.250;8.312;2023-06-14T02:20:38;98577.63;;;18.12;50.05
27144;BME280;14672;50.250;8.312;2023-06-14T02:23:04;98586.53;;;18.14;49.98
27144;BME280;14672;50.250;8.312;2023-06-14T02:25:30;98588.38;;;18.28;49.73
27144;BME280;14672;50.250;8.312;2023-06-14T02:27:56;98586.22;;;18.01;50.10
27144;BME280;14672;50.250;8.312;2023-06-14T02:30:21;98586.53;;;18.19;49.91
27144;BME280;14672;50.250;8.312;2023-06-14T02:32:47;98586.13;;;17.78;50.94
27144;BME280;14672;50.250;8.312;2023-06-14T02:35:14;98591.47;;;18.08;50.08
27144;BME280;14672;50.250;8.312;2023-06-14T02:37:40;98584.88;;;17.91;50.51
27144;BME280;14672;50.250;8.312;2023-06-14T02:40:06;98583.41;;;17.64;51.26
27144;BME280;14672;50.250;8.312;2023-06-14T02:42:34;98594.16;;;17.63;51.21
27144;BME280;14672;50.250;8.312;2023-06-14T02:45:00;98598.66;;;17.81;51.23
27144;BME280;14672;50.250;8.312;2023-06-14T02:47:27;98598.09;;;17.71;51.04
27144;BME280;14672;50.250;8.312;2023-06-14T02:49:53;98587.16;;;17.75;50.88
27144;BME280;14672;50.250;8.312;2023-06-14T02:52:19;98587.91;;;17.76;50.98
27144;BME280;14672;50.250;8.312;2023-06-14T02:54:46;98583.84;;;17.51;51.52
27144;BME280;14672;50.250;8.312;2023-06-14T02:57:14;98595.09;;;17.55;51.18
27144;BME280;14672;50.250;8.312;2023-06-14T02:59:40;98588.66;;;17.65;50.75
27144;BME280;14672;50.250;8.312;2023-06-14T03:02:06;98600.22;;;17.40;51.46
27144;BME280;14672;50.250;8.312;2023-06-14T03:04:32;98601.72;;;17.29;51.58
27144;BME280;14672;50.250;8.312;2023-06-14T03:07:03;98603.97;;;17.20;52.11
27144;BME280;14672;50.250;8.312;2023-06-14T03:09:38;98613.50;;;17.37;51.82
27144;BME280;14672;50.250;8.312;2023-06-14T03:12:06;98602.69;;;17.21;51.68
27144;BME280;14672;50.250;8.312;2023-06-14T03:14:35;98602.16;;;17.17;51.82
27144;BME280;14672;50.250;8.312;2023-06-14T03:17:01;98597.25;;;17.23;51.93
27144;BME280;14672;50.250;8.312;2023-06-14T03:19:27;98602.34;;;17.08;52.56
27144;BME280;14672;50.250;8.312;2023-06-14T03:21:53;98612.28;;;17.12;52.09
27144;BME280;14672;50.250;8.312;2023-06-14T03:24:24;98612.44;;;16.98;52.10
27144;BME280;14672;50.250;8.312;2023-06-14T03:26:49;98614.56;;;17.03;52.36
27144;BME280;14672;50.250;8.312;2023-06-14T03:29:15;98624.06;;;16.83;52.95
27144;BME280;14672;50.250;8.312;2023-06-14T03:31:58;98616.09;;;16.98;52.59
27144;BME280;14672;50.250;8.312;2023-06-14T03:34:24;98620.34;;;17.08;52.20
27144;BME280;14672;50.250;8.312;2023-06-14T03:36:49;98634.38;;;17.01;52.30
27144;BME280;14672;50.250;8.312;2023-06-14T03:39:15;98630.94;;;16.97;52.80
27144;BME280;14672;50.250;8.312;2023-06-14T03:41:41;98635.38;;;16.98;52.65
27144;BME280;14672;50.250;8.312;2023-06-14T03:44:06;98629.38;;;16.96;52.42
27144;BME280;14672;50.250;8.312;2023-06-14T03:46:32;98641.13;;;16.98;52.64
27144;BME280;14672;50.250;8.312;2023-06-14T03:48:58;98642.56;;;16.82;53.22
27144;BME280;14672;50.250;8.312;2023-06-14T03:51:24;98642.97;;;17.01;52.57
27144;BME280;14672;50.250;8.312;2023-06-14T03:53:50;98647.19;;;17.05;52.54
27144;BME280;14672;50.250;8.312;2023-06-14T03:56:16;98638.56;;;17.00;52.82
27144;BME280;14672;50.250;8.312;2023-06-14T03:58:42;98649.50;;;17.01;52.75
27144;BME280;14672;50.250;8.312;2023-06-14T04:01:08;98658.81;;;16.90;52.87
27144;BME280;14672;50.250;8.312;2023-06-14T04:03:33;98647.03;;;16.88;53.10
27144;BME280;14672;50.250;8.312;2023-06-14T04:06:00;98654.03;;;17.08;52.50
27144;BME280;14672;50.250;8.312;2023-06-14T04:08:26;98649.28;;;17.05;52.95
27144;BME280;14672;50.250;8.312;2023-06-14T04:10:51;98659.19;;;17.04;52.86
27144;BME280;14672;50.250;8.312;2023-06-14T04:13:17;98654.81;;;16.82;53.17
27144;BME280;14672;50.250;8.312;2023-06-14T04:15:43;98670.06;;;16.94;52.99
27144;BME280;14672;50.250;8.312;2023-06-14T04:18:12;98667.97;;;16.95;53.38
27144;BME280;14672;50.250;8.312;2023-06-14T04:20:37;98664.59;;;16.96;53.86
27144;BME280;14672;50.250;8.312;2023-06-14T04:23:17;98664.38;;;17.00;53.66
27144;BME280;14672;50.250;8.312;2023-06-14T04:25:46;98666.72;;;17.01;53.40
27144;BME280;14672;50.250;8.312;2023-06-14T04:28:13;98673.16;;;16.90;53.84
27144;BME280;14672;50.250;8.312;2023-06-14T04:30:42;98675.88;;;17.00;53.77
27144;BME280;14672;50.250;8.312;2023-06-14T04:33:08;98676.84;;;16.97;54.24
27144;BME280;14672;50.250;8.312;2023-06-14T04:35:36;98677.41;;;17.01;52.75
27144;BME280;14672;50.250;8.312;2023-06-14T04:38:03;98675.88;;;17.00;52.94
27144;BME280;14672;50.250;8.312;2023-06-14T04:40:35;98677.72;;;17.03;53.20
27144;BME280;14672;50.250;8.312;2023-06-14T04:43:09;98673.66;;;17.15;52.38
27144;BME280;14672;50.250;8.312;2023-06-14T04:45:37;98679.66;;;17.17;52.90
27144;BME280;14672;50.250;8.312;2023-06-14T04:48:11;98677.81;;;17.14;52.87
27144;BME280;14672;50.250;8.312;2023-06-14T04:50:37;98673.44;;;17.24;53.24
27144;BME280;14672;50.250;8.312;2023-06-14T04:53:05;98669.38;;;17.36;52.94
27144;BME280;14672;50.250;8.312;2023-06-14T04:55:32;98672.53;;;17.38;53.16
27144;BME280;14672;50.250;8.312;2023-06-14T04:57:58;98672.78;;;17.40;53.29
27144;BME280;14672;50.250;8.312;2023-06-14T05:00:24;98677.66;;;17.60;52.90
27144;BME280;14672;50.250;8.312;2023-06-14T05:02:49;98681.13;;;17.69;52.87
27144;BME280;14672;50.250;8.312;2023-06-14T05:05:16;98676.00;;;17.84;53.14
27144;BME280;14672;50.250;8.312;2023-06-14T05:07:42;98686.47;;;17.88;53.50
27144;BME280;14672;50.250;8.312;2023-06-14T05:10:10;98675.00;;;17.93;53.01
27144;BME280;14672;50.250;8.312;2023-06-14T05:12:36;98686.81;;;18.01;52.27
27144;BME280;14672;50.250;8.312;2023-06-14T05:15:02;98686.06;;;18.06;52.80
27144;BME280;14672;50.250;8.312;2023-06-14T05:17:28;98681.66;;;18.16;53.29
27144;BME280;14672;50.250;8.312;2023-06-14T05:19:54;98680.66;;;18.19;53.14
27144;BME280;14672;50.250;8.312;2023-06-14T05:22:22;98678.94;;;18.49;52.37
27144;BME280;14672;50.250;8.312;2023-06-14T05:24:47;98679.81;;;18.72;51.90
27144;BME280;14672;50.250;8.312;2023-06-14T05:27:14;98679.09;;;18.94;50.99
27144;BME280;14672;50.250;8.312;2023-06-14T05:29:39;98683.81;;;19.19;50.34
27144;BME280;14672;50.250;8.312;2023-06-14T05:32:06;98681.75;;;19.47;49.74
27144;BME280;14672;50.250;8.312;2023-06-14T05:34:32;98685.69;;;19.44;49.76
27144;BME280;14672;50.250;8.312;2023-06-14T05:36:57;98685.69;;;19.78;49.27
27144;BME280;14672;50.250;8.312;2023-06-14T05:39:24;98679.09;;;19.83;49.95
27144;BME280;14672;50.250;8.312;2023-06-14T05:41:50;98677.50;;;19.98;49.85
27144;BME280;14672;50.250;8.312;2023-06-14T05:44:15;98686.59;;;20.19;49.04
27144;BME280;14672;50.250;8.312;2023-06-14T05:46:41;98680.81;;;20.36;48.87
27144;BME280;14672;50.250;8.312;2023-06-14T05:49:07;98688.91;;;20.48;48.18
27144;BME280;14672;50.250;8.312;2023-06-14T05:51:32;98694.44;;;20.41;48.47
27144;BME280;14672;50.250;8.312;2023-06-14T05:53:59;98684.06;;;20.68;47.55
27144;BME280;14672;50.250;8.312;2023-06-14T05:56:28;98690.34;;;20.77;46.93
27144;BME280;14672;50.250;8.312;2023-06-14T05:58:53;98677.69;;;20.86;45.84
27144;BME280;14672;50.250;8.312;2023-06-14T06:01:22;98685.00;;;20.87;44.02
27144;BME280;14672;50.250;8.312;2023-06-14T06:03:48;98688.00;;;21.11;44.01
27144;BME280;14672;50.250;8.312;2023-06-14T06:06:14;98685.41;;;21.13;44.10
27144;BME280;14672;50.250;8.312;2023-06-14T06:08:40;98688.19;;;21.30;43.83
27144;BME280;14672;50.250;8.312;2023-06-14T06:11:06;98694.53;;;21.23;43.61
27144;BME280;14672;50.250;8.312;2023-06-14T06:13:31;98701.94;;;21.07;43.87
27144;BME280;14672;50.250;8.312;2023-06-14T06:15:58;98697.25;;;21.04;43.37
27144;BME280;14672;50.250;8.312;2023-06-14T06:18:23;98699.84;;;21.07;42.92
27144;BME280;14672;50.250;8.312;2023-06-14T06:20:49;98703.75;;;21.10;43.25
27144;BME280;14672;50.250;8.312;2023-06-14T06:23:15;98696.97;;;21.07;43.00
27144;BME280;14672;50.250;8.312;2023-06-14T06:25:42;98698.41;;;20.90;43.06
27144;BME280;14672;50.250;8.312;2023-06-14T06:28:08;98709.09;;;21.00;42.83
27144;BME280;14672;50.250;8.312;2023-06-14T06:30:34;98707.97;;;21.15;42.92
27144;BME280;14672;50.250;8.312;2023-06-14T06:33:01;98708.22;;;21.17;43.00
27144;BME280;14672;50.250;8.312;2023-06-14T06:35:27;98705.88;;;21.15;42.65
27144;BME280;14672;50.250;8.312;2023-06-14T06:37:54;98719.75;;;21.22;42.79
27144;BME280;14672;50.250;8.312;2023-06-14T06:40:21;98715.81;;;21.25;43.02
27144;BME280;14672;50.250;8.312;2023-06-14T06:42:46;98711.56;;;21.26;42.70
27144;BME280;14672;50.250;8.312;2023-06-14T06:45:12;98710.22;;;21.33;42.85
27144;BME280;14672;50.250;8.312;2023-06-14T06:47:38;98710.16;;;21.38;43.34
27144;BME280;14672;50.250;8.312;2023-06-14T06:50:04;98717.03;;;21.35;42.94
27144;BME280;14672;50.250;8.312;2023-06-14T06:52:31;98716.41;;;21.13;42.95
27144;BME280;14672;50.250;8.312;2023-06-14T06:54:57;98715.72;;;21.36;42.17
27144;BME280;14672;50.250;8.312;2023-06-14T06:57:23;98709.88;;;21.42;42.48
27144;BME280;14672;50.250;8.312;2023-06-14T06:59:49;98719.00;;;21.16;42.60
27144;BME280;14672;50.250;8.312;2023-06-14T07:02:16;98717.84;;;21.30;42.61
27144;BME280;14672;50.250;8.312;2023-06-14T07:04:42;98724.69;;;21.27;42.06
27144;BME280;14672;50.250;8.312;2023-06-14T07:07:07;98726.09;;;21.15;42.34
27144;BME280;14672;50.250;8.312;2023-06-14T07:09:35;98732.84;;;21.29;42.46
27144;BME280;14672;50.250;8.312;2023-06-14T07:12:01;98732.34;;;21.25;42.63
27144;BME280;14672;50.250;8.312;2023-06-14T07:14:27;98731.69;;;21.43;42.57
27144;BME280;14672;50.250;8.312;2023-06-14T07:16:53;98735.34;;;21.43;42.58
27144;BME280;14672;50.250;8.312;2023-06-14T07:19:19;98743.16;;;21.54;42.18
27144;BME280;14672;50.250;8.312;2023-06-14T07:21:45;98739.44;;;21.59;42.15
27144;BME280;14672;50.250;8.312;2023-06-14T07:24:10;98742.66;;;21.50;42.06
27144;BME280;14672;50.250;8.312;2023-06-14T07:26:36;98752.19;;;21.45;41.97
27144;BME280;14672;50.250;8.312;2023-06-14T07:29:02;98752.38;;;21.52;41.94
27144;BME280;14672;50.250;8.312;2023-06-14T07:31:28;98748.88;;;21.65;41.39
27144;BME280;14672;50.250;8.312;2023-06-14T07:33:53;98749.56;;;21.77;41.72
27144;BME280;14672;50.250;8.312;2023-06-14T07:36:19;98741.72;;;21.72;42.28
27144;BME280;14672;50.250;8.312;2023-06-14T07:38:46;98737.50;;;21.73;41.78
27144;BME280;14672;50.250;8.312;2023-06-14T07:41:12;98731.53;;;21.65;42.07
27144;BME280;14672;50.250;8.312;2023-06-14T07:43:37;98736.59;;;21.83;42.05
27144;BME280;14672;50.250;8.312;2023-06-14T07:46:04;98734.47;;;21.89;42.32
27144;BME280;14672;50.250;8.312;2023-06-14T07:48:30;98738.88;;;21.96;41.69
27144;BME280;14672;50.250;8.312;2023-06-14T07:50:56;98731.53;;;21.95;42.08
27144;BME280;14672;50.250;8.312;2023-06-14T07:53:22;98736.84;;;22.15;41.84
27144;BME280;14672;50.250;8.312;2023-06-14T07:55:47;98726.19;;;22.05;42.26
27144;BME280;14672;50.250;8.312;2023-06-14T07:58:14;98733.53;;;22.06;42.04
27144;BME280;14672;50.250;8.312;2023-06-14T08:00:40;98727.38;;;22.15;41.95
27144;BME280;14672;50.250;8.312;2023-06-14T08:03:05;98732.28;;;22.25;41.72
27144;BME280;14672;50.250;8.312;2023-06-14T08:05:31;98722.50;;;22.28;41.25
27144;BME280;14672;50.250;8.312;2023-06-14T08:07:57;98731.25;;;22.47;41.99
27144;BME280;14672;50.250;8.312;2023-06-14T08:10:23;98728.59;;;22.49;42.28
27144;BME280;14672;50.250;8.312;2023-06-14T08:12:48;98728.16;;;22.64;41.75
27144;BME280;14672;50.250;8.312;2023-06-14T08:15:16;98730.69;;;22.73;41.73
27144;BME280;14672;50.250;8.312;2023-06-14T08:17:45;98737.50;;;22.75;41.10
27144;BME280;14672;50.250;8.312;2023-06-14T08:20:12;98730.97;;;22.69;40.90
27144;BME280;14672;50.250;8.312;2023-06-14T08:22:39;98727.13;;;22.61;40.95
27144;BME280;14672;50.250;8.312;2023-06-14T08:25:08;98736.84;;;22.64;41.20
27144;BME280;14672;50.250;8.312;2023-06-14T08:27:34;98740.34;;;22.81;40.96
27144;BME280;14672;50.250;8.312;2023-06-14T08:30:00;98743.16;;;22.86;41.28
27144;BME280;14672;50.250;8.312;2023-06-14T08:32:26;98728.75;;;22.81;40.71
27144;BME280;14672;50.250;8.312;2023-06-14T08:34:52;98737.13;;;22.84;41.19
27144;BME280;14672;50.250;8.312;2023-06-14T08:37:18;98741.31;;;22.65;41.06
27144;BME280;14672;50.250;8.312;2023-06-14T08:39:43;98735.03;;;22.85;40.94
27144;BME280;14672;50.250;8.312;2023-06-14T08:42:10;98737.91;;;22.85;40.43
27144;BME280;14672;50.250;8.312;2023-06-14T08:44:37;98744.41;;;22.72;40.36
27144;BME280;14672;50.250;8.312;2023-06-14T08:47:04;98746.97;;;22.76;39.97
27144;BME280;14672;50.250;8.312;2023-06-14T08:49:31;98743.72;;;22.85;39.42
27144;BME280;14672;50.250;8.312;2023-06-14T08:51:59;98746.00;;;22.92;39.62
27144;BME280;14672;50.250;8.312;2023-06-14T08:54:28;98749.97;;;23.08;39.74
27144;BME280;14672;50.250;8.312;2023-06-14T08:56:58;98753.41;;;23.06;39.20
27144;BME280;14672;50.250;8.312;2023-06-14T08:59:26;98744.66;;;23.12;38.60
27144;BME280;14672;50.250;8.312;2023-06-14T09:01:53;98751.41;;;23.20;38.68
27144;BME280;14672;50.250;8.312;2023-06-14T09:04:21;98743.88;;;23.11;38.51
27144;BME280;14672;50.250;8.312;2023-06-14T09:06:48;98750.06;;;23.02;37.74
27144;BME280;14672;50.250;8.312;2023-06-14T09:09:21;98740.25;;;23.05;38.63
27144;BME280;14672;50.250;8.312;2023-06-14T09:11:50;98755.47;;;23.11;38.99
27144;BME280;14672;50.250;8.312;2023-06-14T09:14:17;98751.47;;;23.14;39.19
27144;BME280;14672;50.250;8.312;2023-06-14T09:16:43;98745.75;;;23.09;38.49
27144;BME280;14672;50.250;8.312;2023-06-14T09:19:10;98757.03;;;23.12;38.64
27144;BME280;14672;50.250;8.312;2023-06-14T09:21:40;98756.56;;;23.27;38.29
27144;BME280;14672;50.250;8.312;2023-06-14T09:24:06;98754.69;;;23.48;38.52
27144;BME280;14672;50.250;8.312;2023-06-14T09:26:40;98752.81;;;23.51;38.83
27144;BME280;14672;50.250;8.312;2023-06-14T09:29:06;98758.28;;;23.54;38.42
27144;BME280;14672;50.250;8.312;2023-06-14T09:31:32;98768.94;;;23.46;37.74
27144;BME280;14672;50.250;8.312;2023-06-14T09:33:58;98772.47;;;23.58;37.98
27144;BME280;14672;50.250;8.312;2023-06-14T09:36:27;98774.22;;;23.48;38.64
27144;BME280;14672;50.250;8.312;2023-06-14T09:39:02;98770.53;;;23.47;37.44
27144;BME280;14672;50.250;8.312;2023-06-14T09:41:40;98782.34;;;23.68;37.71
27144;BME280;14672;50.250;8.312;2023-06-14T09:44:10;98778.25;;;23.76;38.12
27144;BME280;14672;50.250;8.312;2023-06-14T09:46:38;98764.81;;;23.73;38.45
27144;BME280;14672;50.250;8.312;2023-06-14T09:49:05;98768.44;;;23.79;38.35
27144;BME280;14672;50.250;8.312;2023-06-14T09:51:32;98778.25;;;23.76;38.75
27144;BME280;14672;50.250;8.312;2023-06-14T09:54:00;98780.22;;;24.00;39.02
27144;BME280;14672;50.250;8.312;2023-06-14T09:56:29;98781.22;;;24.03;38.07
27144;BME280;14672;50.250;8.312;2023-06-14T09:58:57;98780.22;;;24.00;37.60
27144;BME280;14672;50.250;8.312;2023-06-14T10:01:30;98768.41;;;24.11;37.99
27144;BME280;14672;50.250;8.312;2023-06-14T10:04:03;98778.06;;;24.01;37.97
27144;BME280;14672;50.250;8.312;2023-06-14T10:06:30;98771.06;;;24.09;37.47
27144;BME280;14672;50.250;8.312;2023-06-14T10:08:58;98782.63;;;23.83;37.06
27144;BME280;14672;50.250;8.312;2023-06-14T10:11:28;98776.16;;;23.90;36.90
27144;BME280;14672;50.250;8.312;2023-06-14T10:13:55;98766.00;;;23.97;37.01
27144;BME280;14672;50.250;8.312;2023-06-14T10:24:33;98765.56;;;24.24;36.12
27144;BME280;14672;50.250;8.312;2023-06-14T10:27:00;98766.03;;;24.42;35.70
27144;BME280;14672;50.250;8.312;2023-06-14T10:29:27;98759.44;;;24.54;35.23
27144;BME280;14672;50.250;8.312;2023-06-14T10:32:00;98758.66;;;24.54;35.91
27144;BME280;14672;50.250;8.312;2023-06-14T10:34:31;98767.94;;;24.39;37.67
27144;BME280;14672;50.250;8.312;2023-06-14T10:39:42;98764.94;;;24.71;35.35
27144;BME280;14672;50.250;8.312;2023-06-14T10:42:12;98759.56;;;24.75;36.17
27144;BME280;14672;50.250;8.312;2023-06-14T10:47:35;98763.69;;;24.93;35.65
27144;BME280;14672;50.250;8.312;2023-06-14T10:50:08;98757.31;;;25.07;35.12
27144;BME280;14672;50.250;8.312;2023-06-14T10:52:40;98753.25;;;25.23;35.55
27144;BME280;14672;50.250;8.312;2023-06-14T10:57:39;98755.75;;;25.40;34.86
27144;BME280;14672;50.250;8.312;2023-06-14T11:00:07;98759.69;;;25.43;34.96
27144;BME280;14672;50.250;8.312;2023-06-14T11:05:54;98762.63;;;25.30;35.11
27144;BME280;14672;50.250;8.312;2023-06-14T11:11:15;98763.69;;;25.53;35.49
27144;BME280;14672;50.250;8.312;2023-06-14T11:13:44;98763.19;;;25.75;35.56
27144;BME280;14672;50.250;8.312;2023-06-14T11:16:16;98763.69;;;25.87;35.29
27144;BME280;14672;50.250;8.312;2023-06-14T11:18:44;98761.81;;;25.97;35.11
27144;BME280;14672;50.250;8.312;2023-06-14T11:21:11;98771.81;;;25.88;34.74
27144;BME280;14672;50.250;8.312;2023-06-14T11:23:37;98757.50;;;25.90;34.54
27144;BME280;14672;50.250;8.312;2023-06-14T11:26:03;98765.03;;;26.06;35.66
27144;BME280;14672;50.250;8.312;2023-06-14T11:28:41;98765.09;;;26.35;35.30
27144;BME280;14672;50.250;8.312;2023-06-14T11:31:07;98763.53;;;26.13;34.34
27144;BME280;14672;50.250;8.312;2023-06-14T11:33:34;98759.34;;;26.22;33.88
27144;BME280;14672;50.250;8.312;2023-06-14T11:36:03;98755.16;;;26.30;34.56
27144;BME280;14672;50.250;8.312;2023-06-14T11:38:30;98753.16;;;26.46;33.63
27144;BME280;14672;50.250;8.312;2023-06-14T11:40:59;98765.63;;;26.54;34.32
27144;BME280;14672;50.250;8.312;2023-06-14T11:43:25;98754.06;;;26.41;33.30
27144;BME280;14672;50.250;8.312;2023-06-14T11:45:53;98753.03;;;26.31;34.14
27144;BME280;14672;50.250;8.312;2023-06-14T11:48:18;98759.22;;;26.27;34.26
27144;BME280;14672;50.250;8.312;2023-06-14T11:50:44;98751.00;;;26.46;32.97
27144;BME280;14672;50.250;8.312;2023-06-14T11:53:10;98750.84;;;26.52;32.85
27144;BME280;14672;50.250;8.312;2023-06-14T11:55:39;98750.31;;;26.61;33.18
27144;BME280;14672;50.250;8.312;2023-06-14T11:58:06;98751.16;;;26.69;33.21
27144;BME280;14672;50.250;8.312;2023-06-14T12:00:35;98738.34;;;26.72;33.13
27144;BME280;14672;50.250;8.312;2023-06-14T12:03:01;98748.25;;;26.69;33.42
27144;BME280;14672;50.250;8.312;2023-06-14T12:05:27;98743.09;;;26.83;33.25
27144;BME280;14672;50.250;8.312;2023-06-14T12:08:01;98747.53;;;27.12;34.33
27144;BME280;14672;50.250;8.312;2023-06-14T12:10:28;98742.31;;;27.18;32.84
27144;BME280;14672;50.250;8.312;2023-06-14T12:12:59;98748.94;;;27.19;32.43
27144;BME280;14672;50.250;8.312;2023-06-14T12:15:28;98751.97;;;27.05;33.32
27144;BME280;14672;50.250;8.312;2023-06-14T12:17:55;98753.72;;;27.08;32.97
27144;BME280;14672;50.250;8.312;2023-06-14T12:20:21;98744.66;;;27.27;32.96
27144;BME280;14672;50.250;8.312;2023-06-14T12:22:59;98738.25;;;27.29;33.56
27144;BME280;14672;50.250;8.312;2023-06-14T12:25:34;98744.00;;;27.49;33.02
27144;BME280;14672;50.250;8.312;2023-06-14T12:28:08;98743.56;;;27.38;33.38
27144;BME280;14672;50.250;8.312;2023-06-14T12:30:37;98738.50;;;27.38;33.63
27144;BME280;14672;50.250;8.312;2023-06-14T12:33:03;98739.69;;;27.43;33.12
27144;BME280;14672;50.250;8.312;2023-06-14T12:35:29;98738.16;;;27.49;32.50
27144;BME280;14672;50.250;8.312;2023-06-14T12:37:55;98734.09;;;27.60;32.32
27144;BME280;14672;50.250;8.312;2023-06-14T12:40:22;98740.59;;;27.89;32.34
27144;BME280;14672;50.250;8.312;2023-06-14T12:42:48;98740.97;;;28.00;32.39
27144;BME280;14672;50.250;8.312;2023-06-14T12:45:14;98728.34;;;28.06;31.46
27144;BME280;14672;50.250;8.312;2023-06-14T12:47:42;98727.41;;;28.11;31.03
27144;BME280;14672;50.250;8.312;2023-06-14T12:50:08;98730.88;;;28.32;31.70
27144;BME280;14672;50.250;8.312;2023-06-14T12:52:34;98729.91;;;28.44;32.01
27144;BME280;14672;50.250;8.312;2023-06-14T12:55:04;98733.03;;;28.31;31.66
27144;BME280;14672;50.250;8.312;2023-06-14T12:57:30;98734.16;;;28.51;30.80
27144;BME280;14672;50.250;8.312;2023-06-14T12:59:56;98722.47;;;28.66;31.50
27144;BME280;14672;50.250;8.312;2023-06-14T13:02:22;98733.00;;;28.69;31.29
27144;BME280;14672;50.250;8.312;2023-06-14T13:04:52;98740.81;;;28.44;31.91
27144;BME280;14672;50.250;8.312;2023-06-14T13:07:18;98744.31;;;28.35;31.75
27144;BME280;14672;50.250;8.312;2023-06-14T13:09:44;98745.69;;;28.34;31.38
27144;BME280;14672;50.250;8.312;2023-06-14T13:12:10;98745.88;;;28.13;31.33
27144;BME280;14672;50.250;8.312;2023-06-14T13:14:40;98745.50;;;28.09;30.86
27144;BME280;14672;50.250;8.312;2023-06-14T13:17:09;98753.69;;;28.18;31.18
27144;BME280;14672;50.250;8.312;2023-06-14T13:19:35;98751.94;;;28.30;31.35
27144;BME280;14672;50.250;8.312;2023-06-14T13:22:01;98741.78;;;28.54;31.74
27144;BME280;14672;50.250;8.312;2023-06-14T13:24:27;98744.31;;;28.58;31.49
27144;BME280;14672;50.250;8.312;2023-06-14T13:26:58;98749.00;;;28.38;31.43